Hauptseite
METAR-TAF:

METAR-TAF

Flughäfen :

Kythira, Griechenland

Breite: 36-17-21N, Länge: 023-01-24E, Höhe: 321 m

METAR: fehlend

Zeit: 00:15 (22:15 UTC)

Prognose

Neuester Wetterbericht von vor 2 Stunden und 15 Minuten, um 20:00 UTC
Gültige Prognose vom 07 um 21 UTC bis 08 um 06 UTC
Wind 12 kt aus West/Nordwest, Böen bis zu 22 kt
Sichtweite 10 km oder mehr
Aufgelockert bewölkt in der Höhe von 1800 ft
Wahrscheinlichkeit 30% :
Zeitweise
vom 07 um 21 UTC bis 07 um 23 UTC
Sichtweite: 5000 m
Leicht bewölkt in der Höhe von 1800 ft, Towering cumulus.
Durchbrochene Bewölkung in der Höhe von 3000 ft
Regen

TAF: LGKC 072000Z 0721/0806 30012G22KT 9999 SCT018 PROB30 TEMPO 0721/0723 5000 RA FEW018TCU BKN030

Wetterbeobachtungen und Prognosen von mehr als 4000 Flughäfen (METAR und TAF Bericht).

Die verfügbaren Stationen werden durch gelbe und rote Markierungen auf der Karte dargestellt.

Führen Sie die Maus auf sie, um den Namen der Station zu sehen.

Darauf klicken, um die Beobachtung von Wetterbeobachtungen und Prognosen zu sehen.

Um die Karte zu ändern : klicken Sie auf den grünen Tasten mit einem schwarzen Kreuz Zum Vergrößern, auf den grünen Button mit einem Gedankenstrich zu verkleinern, oder auf die grünen Pfeile für benachbarte Karten.


METAR-TAF: